createdAt,value
2023-01-27T00:01:17.309Z,18.30
2023-01-27T00:03:46.021Z,18.20
2023-01-27T00:06:14.440Z,18.30
2023-01-27T00:08:42.993Z,18.20
2023-01-27T00:11:29.325Z,18.20
2023-01-27T00:13:59.121Z,18.20
2023-01-27T00:16:27.620Z,18.20
2023-01-27T00:18:55.989Z,18.30
2023-01-27T00:21:42.126Z,18.30
2023-01-27T00:24:31.791Z,18.30
2023-01-27T00:27:00.408Z,18.20
2023-01-27T00:29:30.432Z,18.20
2023-01-27T00:32:18.841Z,18.20
2023-01-27T00:34:47.564Z,18.20
2023-01-27T00:37:16.249Z,18.20
2023-01-27T00:39:44.541Z,18.20
2023-01-27T00:42:12.876Z,18.20
2023-01-27T00:45:03.119Z,18.20
2023-01-27T00:47:31.575Z,18.30
2023-01-27T00:49:59.917Z,18.30
2023-01-27T00:52:28.404Z,18.20
2023-01-27T00:54:56.857Z,18.30
2023-01-27T00:57:25.835Z,18.20
2023-01-27T00:59:55.538Z,18.20
2023-01-27T01:02:23.715Z,18.20
2023-01-27T01:04:52.536Z,18.30
2023-01-27T01:07:20.967Z,18.30
2023-01-27T01:09:49.294Z,18.20
2023-01-27T01:12:17.598Z,18.20
2023-01-27T01:14:46.222Z,18.20
2023-01-27T01:17:16.290Z,18.30
2023-01-27T01:19:44.663Z,18.30
2023-01-27T01:22:13.179Z,18.20
2023-01-27T01:24:42.687Z,18.20
2023-01-27T01:27:12.018Z,18.20
2023-01-27T01:29:40.464Z,18.30
2023-01-27T01:32:09.983Z,18.20
2023-01-27T01:34:39.987Z,18.20
2023-01-27T01:37:08.598Z,18.30
2023-01-27T01:39:36.867Z,18.30
2023-01-27T01:42:05.234Z,18.30
2023-01-27T01:44:34.466Z,18.30
2023-01-27T01:47:02.801Z,18.20
2023-01-27T01:49:36.269Z,18.20
2023-01-27T01:52:10.603Z,18.20
2023-01-27T01:54:43.825Z,18.20
2023-01-27T01:57:17.271Z,18.20
2023-01-27T01:59:52.031Z,18.30
2023-01-27T02:02:24.430Z,18.20
2023-01-27T02:04:58.840Z,18.20
2023-01-27T02:07:34.819Z,18.20
2023-01-27T02:10:03.925Z,18.20
2023-01-27T02:12:36.589Z,18.20
2023-01-27T02:15:06.368Z,18.20
2023-01-27T02:17:34.748Z,18.20
2023-01-27T02:20:10.778Z,18.20
2023-01-27T02:22:48.201Z,18.20
2023-01-27T02:25:23.675Z,18.20
2023-01-27T02:27:53.394Z,18.20
2023-01-27T02:30:22.038Z,18.20
2023-01-27T02:32:50.275Z,18.20
2023-01-27T02:35:23.891Z,18.20
2023-01-27T02:37:53.209Z,18.20
2023-01-27T02:40:23.481Z,18.20
2023-01-27T02:42:56.921Z,18.30
2023-01-27T02:45:25.587Z,18.20
2023-01-27T02:47:54.618Z,18.30
2023-01-27T02:50:22.927Z,18.30
2023-01-27T02:52:51.213Z,18.30
2023-01-27T02:55:19.497Z,18.20
2023-01-27T02:57:47.890Z,18.20
2023-01-27T03:00:46.861Z,18.20
2023-01-27T03:03:15.340Z,18.30
2023-01-27T03:05:43.643Z,18.30
2023-01-27T03:08:12.331Z,18.20
2023-01-27T03:10:40.808Z,18.20
2023-01-27T03:13:09.476Z,18.30
2023-01-27T03:15:58.534Z,18.30
2023-01-27T03:18:28.625Z,18.30
2023-01-27T03:21:02.365Z,18.30
2023-01-27T03:23:34.641Z,18.30
2023-01-27T03:26:06.981Z,18.20
2023-01-27T03:28:37.555Z,18.30
2023-01-27T03:31:10.366Z,18.30
2023-01-27T03:33:53.282Z,18.20
2023-01-27T03:36:47.780Z,18.30
2023-01-27T03:39:33.337Z,18.30
2023-01-27T03:42:19.997Z,18.30
2023-01-27T03:45:06.410Z,18.30
2023-01-27T03:47:34.646Z,18.30
2023-01-27T03:50:11.182Z,18.30
2023-01-27T03:52:39.567Z,18.30
2023-01-27T03:55:09.485Z,18.20
2023-01-27T03:57:38.547Z,18.20
2023-01-27T04:00:08.094Z,18.30
2023-01-27T04:02:58.727Z,18.20
2023-01-27T04:05:46.099Z,18.20
2023-01-27T04:08:14.346Z,18.30
2023-01-27T04:11:02.720Z,18.20
2023-01-27T04:13:30.080Z,18.30
2023-01-27T04:16:05.746Z,18.20
2023-01-27T04:18:34.339Z,18.20
2023-01-27T04:21:04.445Z,18.20
2023-01-27T04:23:32.706Z,18.30
2023-01-27T04:26:01.510Z,18.30
2023-01-27T04:28:43.886Z,18.30
2023-01-27T04:31:13.173Z,18.30
2023-01-27T04:33:41.675Z,18.30
2023-01-27T04:36:12.233Z,18.20
2023-01-27T04:38:40.526Z,18.30
2023-01-27T04:41:08.817Z,18.20
2023-01-27T04:43:37.203Z,18.20
2023-01-27T04:46:05.807Z,18.20
2023-01-27T04:48:34.583Z,18.20
2023-01-27T04:51:02.984Z,18.20
2023-01-27T04:53:32.641Z,18.20
2023-01-27T04:56:06.540Z,18.20
2023-01-27T04:58:35.222Z,18.20
2023-01-27T05:01:03.568Z,18.20
2023-01-27T05:03:33.316Z,18.20
2023-01-27T05:06:01.837Z,18.20
2023-01-27T05:08:36.139Z,18.20
2023-01-27T05:11:11.339Z,18.20
2023-01-27T05:13:40.803Z,18.20
2023-01-27T05:16:18.534Z,18.20
2023-01-27T05:18:48.805Z,18.20
2023-01-27T05:21:21.542Z,18.20
2023-01-27T05:23:54.735Z,18.20
2023-01-27T05:26:26.285Z,18.20
2023-01-27T05:28:55.818Z,18.20
2023-01-27T05:31:26.512Z,18.10
2023-01-27T05:33:56.274Z,18.10
2023-01-27T05:36:25.756Z,18.20
2023-01-27T05:38:57.566Z,18.20
2023-01-27T05:41:29.598Z,18.20
2023-01-27T05:43:58.601Z,18.20
2023-01-27T05:46:29.248Z,18.20
2023-01-27T05:49:00.273Z,18.20
2023-01-27T05:51:31.605Z,18.20
2023-01-27T05:54:01.326Z,18.20
2023-01-27T05:56:29.759Z,18.20
2023-01-27T05:58:59.295Z,18.20
2023-01-27T06:01:29.690Z,18.20
2023-01-27T06:03:58.864Z,18.20
2023-01-27T06:06:29.608Z,18.20
2023-01-27T06:08:58.397Z,18.20
2023-01-27T06:11:34.793Z,18.30
2023-01-27T06:14:03.242Z,18.30
2023-01-27T06:16:31.731Z,18.20
2023-01-27T06:19:00.106Z,18.20
2023-01-27T06:21:28.594Z,18.30
2023-01-27T06:23:58.120Z,18.30
2023-01-27T06:26:26.733Z,18.30
2023-01-27T06:29:00.820Z,18.30
2023-01-27T06:31:29.398Z,18.30
2023-01-27T06:33:58.088Z,18.30
2023-01-27T06:36:26.515Z,18.30
2023-01-27T06:38:54.813Z,18.30
2023-01-27T06:41:23.152Z,18.30
2023-01-27T06:43:51.517Z,18.30
2023-01-27T06:46:21.158Z,18.30
2023-01-27T06:48:52.270Z,18.20
2023-01-27T06:51:20.501Z,18.20
2023-01-27T06:53:48.847Z,18.30
2023-01-27T06:56:18.309Z,18.20
2023-01-27T06:58:46.766Z,18.30
2023-01-27T07:01:15.229Z,18.20
2023-01-27T07:03:45.354Z,18.30
2023-01-27T07:06:15.254Z,18.30
2023-01-27T07:08:45.938Z,18.30
2023-01-27T07:11:14.865Z,18.30
2023-01-27T07:13:43.207Z,18.30
2023-01-27T07:16:11.548Z,18.30
2023-01-27T07:18:40.222Z,18.30
2023-01-27T07:21:10.138Z,18.30
2023-01-27T07:23:38.591Z,18.20
2023-01-27T07:26:19.308Z,18.20
2023-01-27T07:28:55.624Z,18.40
2023-01-27T07:31:24.059Z,18.60
2023-01-27T07:33:53.800Z,18.80
2023-01-27T07:36:23.411Z,18.90
2023-01-27T07:38:52.418Z,19.00
2023-01-27T07:41:23.094Z,19.00
2023-01-27T07:43:52.423Z,18.90
2023-01-27T07:46:21.044Z,18.80
2023-01-27T07:48:49.481Z,18.90
2023-01-27T07:51:17.906Z,19.10
2023-01-27T07:53:47.707Z,19.10
2023-01-27T07:56:17.910Z,19.20
2023-01-27T07:58:46.458Z,19.10
2023-01-27T08:01:14.859Z,19.20
2023-01-27T08:03:43.210Z,19.20
2023-01-27T08:06:13.560Z,19.20
2023-01-27T08:08:41.832Z,19.20
2023-01-27T08:11:14.649Z,19.20
2023-01-27T08:13:43.501Z,19.20
2023-01-27T08:16:14.953Z,19.20
2023-01-27T08:18:43.330Z,19.20
2023-01-27T08:21:13.205Z,19.30
2023-01-27T08:23:41.646Z,19.30
2023-01-27T08:26:11.467Z,19.40
2023-01-27T08:28:40.796Z,19.30
2023-01-27T08:31:10.777Z,19.40
2023-01-27T08:33:39.996Z,19.40
2023-01-27T08:36:11.337Z,19.40
2023-01-27T08:38:40.548Z,19.50
2023-01-27T08:41:11.743Z,19.40
2023-01-27T08:43:40.153Z,19.20
2023-01-27T08:46:09.582Z,19.20
2023-01-27T08:48:38.345Z,19.20
2023-01-27T08:51:08.826Z,19.20
2023-01-27T08:53:37.964Z,19.10
2023-01-27T08:56:08.644Z,19.20
2023-01-27T08:58:38.231Z,19.10
2023-01-27T09:01:08.242Z,19.40
2023-01-27T09:03:37.236Z,19.60
2023-01-27T09:06:06.256Z,19.50
2023-01-27T09:08:34.540Z,19.40
2023-01-27T09:11:09.672Z,19.40
2023-01-27T09:13:39.301Z,19.30
2023-01-27T09:16:08.015Z,19.40
2023-01-27T09:18:36.684Z,19.40
2023-01-27T09:21:06.191Z,19.40
2023-01-27T09:23:35.231Z,19.40
2023-01-27T09:26:03.686Z,19.40
2023-01-27T09:28:32.094Z,19.40
2023-01-27T09:31:02.299Z,19.50
2023-01-27T09:33:30.659Z,19.40
2023-01-27T09:36:02.823Z,19.40
2023-01-27T09:38:35.786Z,19.20
2023-01-27T09:41:18.118Z,19.10
2023-01-27T09:44:08.894Z,19.20
2023-01-27T09:46:58.843Z,19.40
2023-01-27T09:50:08.733Z,19.50
2023-01-27T09:52:58.955Z,19.60
2023-01-27T09:55:37.061Z,19.60
2023-01-27T09:58:11.126Z,19.70
2023-01-27T10:00:47.347Z,19.70
2023-01-27T10:03:32.095Z,19.70
2023-01-27T10:06:34.865Z,19.60
2023-01-27T10:09:36.141Z,19.60
2023-01-27T10:12:13.130Z,19.50
2023-01-27T10:14:49.507Z,19.50
2023-01-27T10:17:27.580Z,19.60
2023-01-27T10:20:11.665Z,19.50
2023-01-27T10:22:51.484Z,19.50
2023-01-27T10:25:31.047Z,19.60
2023-01-27T10:28:13.280Z,19.80
2023-01-27T10:30:51.346Z,19.70
2023-01-27T10:33:21.107Z,19.80
2023-01-27T10:35:54.418Z,19.80
2023-01-27T10:38:35.983Z,19.90
2023-01-27T10:41:15.486Z,19.60
2023-01-27T10:43:55.098Z,19.50
2023-01-27T10:46:34.279Z,19.60
2023-01-27T10:49:32.478Z,19.60
2023-01-27T10:52:09.956Z,19.70
2023-01-27T10:54:43.470Z,19.70
2023-01-27T10:57:16.485Z,19.70
2023-01-27T11:00:07.354Z,19.70
2023-01-27T11:02:45.880Z,19.70
2023-01-27T11:05:21.274Z,19.60
2023-01-27T11:07:57.695Z,19.40
2023-01-27T11:11:01.475Z,19.60
2023-01-27T11:13:31.236Z,19.40
2023-01-27T11:16:01.753Z,19.30
2023-01-27T11:18:33.237Z,19.20
2023-01-27T11:21:06.006Z,19.10
2023-01-27T11:23:41.136Z,19.10
2023-01-27T11:26:23.785Z,19.10
2023-01-27T11:29:00.521Z,19.10
2023-01-27T11:31:38.135Z,19.10
2023-01-27T11:34:24.094Z,19.20
2023-01-27T11:36:52.769Z,19.20
2023-01-27T11:39:22.589Z,19.20
2023-01-27T11:41:54.213Z,19.20
2023-01-27T11:44:27.055Z,19.20
2023-01-27T11:46:56.947Z,19.20
2023-01-27T11:49:29.491Z,19.20
2023-01-27T11:52:05.843Z,19.30
2023-01-27T11:54:42.059Z,19.20
2023-01-27T11:57:18.919Z,19.30
2023-01-27T11:59:48.577Z,19.30
2023-01-27T12:02:27.385Z,19.30
2023-01-27T12:05:02.675Z,19.30
2023-01-27T12:07:43.351Z,19.30
2023-01-27T12:10:34.763Z,19.30
2023-01-27T12:13:09.148Z,19.30
2023-01-27T12:15:39.091Z,19.40
2023-01-27T12:18:13.905Z,19.40
2023-01-27T12:20:45.254Z,19.40
2023-01-27T12:23:22.546Z,19.50
2023-01-27T12:25:55.848Z,19.40
2023-01-27T12:28:32.829Z,19.40
2023-01-27T12:31:07.046Z,19.50
2023-01-27T12:33:36.724Z,19.70
2023-01-27T12:36:15.499Z,19.80
2023-01-27T12:38:48.622Z,20.00
2023-01-27T12:41:25.666Z,20.10
2023-01-27T12:44:00.332Z,20.10
2023-01-27T12:46:30.393Z,20.10
2023-01-27T12:49:04.047Z,20.10
2023-01-27T12:51:41.893Z,20.20
2023-01-27T12:54:21.810Z,20.30
2023-01-27T12:56:53.599Z,20.30
2023-01-27T12:59:25.211Z,20.10
2023-01-27T13:02:03.103Z,20.20
2023-01-27T13:04:32.318Z,20.20
2023-01-27T13:07:08.338Z,20.20
2023-01-27T13:09:40.510Z,20.20
2023-01-27T13:12:17.796Z,20.20
2023-01-27T13:14:46.529Z,20.30
2023-01-27T13:17:37.619Z,20.30
2023-01-27T13:20:16.869Z,20.40
2023-01-27T13:22:48.933Z,20.50
2023-01-27T13:25:20.622Z,20.50
2023-01-27T13:27:54.769Z,20.60
2023-01-27T13:30:29.797Z,20.50
2023-01-27T13:33:04.045Z,20.60
2023-01-27T13:35:38.457Z,20.60
2023-01-27T13:38:16.812Z,20.70
2023-01-27T13:40:46.991Z,20.80
2023-01-27T13:43:23.997Z,20.80
2023-01-27T13:45:56.103Z,20.80
2023-01-27T13:48:28.929Z,20.80
2023-01-27T13:51:04.196Z,20.80
2023-01-27T13:53:32.734Z,20.80
2023-01-27T13:56:15.243Z,20.80
2023-01-27T13:58:56.024Z,20.90
2023-01-27T14:01:32.322Z,20.90
2023-01-27T14:04:31.240Z,21.00
2023-01-27T14:07:15.059Z,20.90
2023-01-27T14:09:53.585Z,20.90
2023-01-27T14:12:41.045Z,20.90
2023-01-27T14:15:24.329Z,20.90
2023-01-27T14:18:01.239Z,20.90
2023-01-27T14:20:46.620Z,21.00
2023-01-27T14:23:32.606Z,20.90
2023-01-27T14:26:13.004Z,20.90
2023-01-27T14:29:19.955Z,20.90
2023-01-27T14:31:58.320Z,20.90
2023-01-27T14:34:37.259Z,21.00
2023-01-27T14:37:16.327Z,21.00
2023-01-27T14:39:54.258Z,20.90
2023-01-27T14:42:29.406Z,21.00
2023-01-27T14:45:07.285Z,21.00
2023-01-27T14:47:45.580Z,21.00
2023-01-27T14:50:24.981Z,21.00
2023-01-27T14:53:00.845Z,21.00
2023-01-27T14:55:38.146Z,21.00
2023-01-27T14:58:32.129Z,21.00
2023-01-27T15:01:15.627Z,21.00
2023-01-27T15:04:05.249Z,21.10
2023-01-27T15:06:41.808Z,21.10
2023-01-27T15:09:17.636Z,21.10
2023-01-27T15:12:07.235Z,21.00
2023-01-27T15:14:54.345Z,20.90
2023-01-27T15:17:33.967Z,21.00
2023-01-27T15:20:31.496Z,20.80
2023-01-27T15:23:16.904Z,20.50
2023-01-27T15:25:47.532Z,20.40
2023-01-27T15:28:19.021Z,20.30
2023-01-27T15:31:23.835Z,20.20
2023-01-27T15:33:55.694Z,20.20
2023-01-27T15:36:37.717Z,20.20
2023-01-27T15:39:25.996Z,20.20
2023-01-27T15:42:12.305Z,20.30
2023-01-27T15:44:43.471Z,20.30
2023-01-27T15:47:14.480Z,20.20
2023-01-27T15:49:46.687Z,20.20
2023-01-27T15:52:28.464Z,20.20
2023-01-27T15:54:59.612Z,20.30
2023-01-27T15:57:32.233Z,20.30
2023-01-27T16:00:05.870Z,20.40
2023-01-27T16:02:45.774Z,20.40
2023-01-27T16:05:25.011Z,20.50
2023-01-27T16:07:59.400Z,20.60
2023-01-27T16:10:32.026Z,20.70
2023-01-27T16:13:28.972Z,20.80
2023-01-27T16:16:33.834Z,21.00
2023-01-27T16:19:09.910Z,21.10
2023-01-27T16:21:47.629Z,21.10
2023-01-27T16:24:26.189Z,21.00
2023-01-27T16:26:58.953Z,20.90
2023-01-27T16:29:37.878Z,20.80
2023-01-27T16:32:15.209Z,20.70
2023-01-27T16:34:49.198Z,20.80
2023-01-27T16:37:24.919Z,20.60
2023-01-27T16:40:01.752Z,20.80
2023-01-27T16:42:33.954Z,20.90
2023-01-27T16:45:09.657Z,20.80
2023-01-27T16:47:44.695Z,20.80
2023-01-27T16:50:35.365Z,20.80
2023-01-27T16:53:05.640Z,20.90
2023-01-27T16:55:40.622Z,20.90
2023-01-27T16:58:19.601Z,20.90
2023-01-27T17:00:50.987Z,21.00
2023-01-27T17:03:25.578Z,21.00
2023-01-27T17:05:56.674Z,21.00
2023-01-27T17:08:26.728Z,21.00
2023-01-27T17:10:58.796Z,21.00
2023-01-27T17:13:33.113Z,21.10
2023-01-27T17:16:04.996Z,21.10
2023-01-27T17:18:50.931Z,21.20
2023-01-27T17:21:37.331Z,21.10
2023-01-27T17:24:12.998Z,21.20
2023-01-27T17:26:46.255Z,21.20
2023-01-27T17:29:18.021Z,21.20
2023-01-27T17:31:46.989Z,21.20
2023-01-27T17:34:19.139Z,21.20
2023-01-27T17:37:07.334Z,21.10
2023-01-27T17:39:39.619Z,21.00
2023-01-27T17:42:12.518Z,21.00
2023-01-27T17:44:40.912Z,21.00
2023-01-27T17:47:09.384Z,21.00
2023-01-27T17:49:40.732Z,21.00
2023-01-27T17:52:10.490Z,21.00
2023-01-27T17:54:41.610Z,20.90
2023-01-27T17:57:20.237Z,20.80
2023-01-27T17:59:57.201Z,20.70
2023-01-27T18:02:29.544Z,20.60
2023-01-27T18:05:02.598Z,20.50
2023-01-27T18:07:31.900Z,20.50
2023-01-27T18:10:00.367Z,20.50
2023-01-27T18:12:35.342Z,20.40
2023-01-27T18:15:37.305Z,20.30
2023-01-27T18:18:09.311Z,20.40
2023-01-27T18:20:37.849Z,20.40
2023-01-27T18:23:07.632Z,20.20
2023-01-27T18:25:35.993Z,20.20
2023-01-27T18:28:06.073Z,20.30
2023-01-27T18:30:34.688Z,20.30
2023-01-27T18:33:06.733Z,20.30
2023-01-27T18:35:35.848Z,20.10
2023-01-27T18:38:31.109Z,20.20
2023-01-27T18:41:10.221Z,20.10
2023-01-27T18:44:01.639Z,20.10
2023-01-27T18:46:30.336Z,20.00
2023-01-27T18:49:00.312Z,20.00
2023-01-27T18:51:28.615Z,19.90
2023-01-27T18:53:57.031Z,19.90
2023-01-27T18:56:25.464Z,20.10
2023-01-27T18:58:54.245Z,20.10
2023-01-27T19:01:25.216Z,20.10
2023-01-27T19:03:57.165Z,20.10
2023-01-27T19:06:26.342Z,20.10
2023-01-27T19:08:54.738Z,20.10
2023-01-27T19:11:23.212Z,20.00
2023-01-27T19:13:51.561Z,20.00
2023-01-27T19:16:19.938Z,20.20
2023-01-27T19:18:50.066Z,20.10
2023-01-27T19:21:21.454Z,20.20
2023-01-27T19:23:49.750Z,20.10
2023-01-27T19:26:19.661Z,20.20
2023-01-27T19:28:50.353Z,20.10
2023-01-27T19:31:18.760Z,20.00
2023-01-27T19:33:47.580Z,19.90
2023-01-27T19:36:22.322Z,19.90
2023-01-27T19:38:54.126Z,20.00
2023-01-27T19:41:22.411Z,20.00
2023-01-27T19:43:50.848Z,19.90
2023-01-27T19:46:22.776Z,19.80
2023-01-27T19:48:51.880Z,20.00
2023-01-27T19:51:21.594Z,19.80
2023-01-27T19:53:51.217Z,19.80
2023-01-27T19:56:21.858Z,19.70
2023-01-27T19:58:52.821Z,19.70
2023-01-27T20:01:22.454Z,19.50
2023-01-27T20:03:51.154Z,19.60
2023-01-27T20:06:22.671Z,19.50
2023-01-27T20:08:57.638Z,19.60
2023-01-27T20:11:32.093Z,19.60
2023-01-27T20:14:02.168Z,19.70
2023-01-27T20:16:30.717Z,19.70
2023-01-27T20:19:01.960Z,19.60
2023-01-27T20:21:33.233Z,19.60
2023-01-27T20:24:02.447Z,19.70
2023-01-27T20:26:32.458Z,19.70
2023-01-27T20:29:01.285Z,19.60
2023-01-27T20:31:29.861Z,19.50
2023-01-27T20:34:01.944Z,19.50
2023-01-27T20:36:34.429Z,19.60
2023-01-27T20:39:03.752Z,19.60
2023-01-27T20:41:32.130Z,19.40
2023-01-27T20:44:01.314Z,19.30
2023-01-27T20:46:31.873Z,19.20
2023-01-27T20:49:01.682Z,19.30
2023-01-27T20:51:31.290Z,19.30
2023-01-27T20:54:00.740Z,19.20
2023-01-27T20:56:29.122Z,19.20
2023-01-27T20:58:57.602Z,19.10
2023-01-27T21:01:28.860Z,19.10
2023-01-27T21:04:00.426Z,19.10
2023-01-27T21:06:28.785Z,19.10
2023-01-27T21:08:58.461Z,19.10
2023-01-27T21:11:26.896Z,19.10
2023-01-27T21:13:55.336Z,19.10
2023-01-27T21:16:24.008Z,19.00
2023-01-27T21:18:52.874Z,19.10
2023-01-27T21:21:25.325Z,19.10
2023-01-27T21:23:53.746Z,19.10
2023-01-27T21:26:23.807Z,19.10
2023-01-27T21:28:52.198Z,19.10
2023-01-27T21:31:22.516Z,19.10
2023-01-27T21:33:51.565Z,19.10
2023-01-27T21:36:21.521Z,19.10
2023-01-27T21:38:52.779Z,19.20
2023-01-27T21:41:48.289Z,19.10
2023-01-27T21:44:38.273Z,19.10
2023-01-27T21:47:08.211Z,19.10
2023-01-27T21:49:58.424Z,19.10
2023-01-27T21:52:33.621Z,19.10
2023-01-27T21:55:02.500Z,19.00
2023-01-27T21:57:35.434Z,19.10
2023-01-27T22:00:07.133Z,19.10
2023-01-27T22:02:41.897Z,19.10
2023-01-27T22:05:14.083Z,19.00
2023-01-27T22:07:42.807Z,19.00
2023-01-27T22:10:20.287Z,19.00
2023-01-27T22:12:51.286Z,19.00
2023-01-27T22:15:21.096Z,19.00
2023-01-27T22:17:50.248Z,18.90
2023-01-27T22:20:19.585Z,19.00
2023-01-27T22:22:48.480Z,19.00
2023-01-27T22:25:21.781Z,19.00
2023-01-27T22:27:55.152Z,19.00
2023-01-27T22:30:23.742Z,19.00
2023-01-27T22:32:52.082Z,19.00
2023-01-27T22:35:20.754Z,18.90
2023-01-27T22:37:50.521Z,18.90
2023-01-27T22:40:19.096Z,18.90
2023-01-27T22:42:51.606Z,19.00
2023-01-27T22:45:19.974Z,18.90
2023-01-27T22:47:49.503Z,19.00
2023-01-27T22:50:18.328Z,18.90
2023-01-27T22:52:48.379Z,18.90
2023-01-27T22:55:16.954Z,18.90
2023-01-27T22:57:47.791Z,18.90
2023-01-27T23:00:18.365Z,18.90
2023-01-27T23:02:46.707Z,18.90
2023-01-27T23:05:15.901Z,18.90
2023-01-27T23:07:46.814Z,18.90
2023-01-27T23:10:15.169Z,18.90
2023-01-27T23:12:43.511Z,18.90
2023-01-27T23:15:13.121Z,18.90
2023-01-27T23:17:43.224Z,18.90
2023-01-27T23:20:12.994Z,18.90
2023-01-27T23:22:41.419Z,18.90
2023-01-27T23:25:11.651Z,18.90
2023-01-27T23:27:40.675Z,18.90
2023-01-27T23:30:12.058Z,18.90
2023-01-27T23:32:42.112Z,18.90
2023-01-27T23:35:13.479Z,18.80
2023-01-27T23:37:42.099Z,18.90
2023-01-27T23:40:14.003Z,18.80
2023-01-27T23:42:42.613Z,18.80
2023-01-27T23:45:11.854Z,18.80
2023-01-27T23:47:40.518Z,18.90
2023-01-27T23:50:12.474Z,18.80
2023-01-27T23:52:40.873Z,18.80
2023-01-27T23:55:09.849Z,18.80
2023-01-27T23:57:39.699Z,18.80
